Time;durP1;ratioP1;P1;durP2;ratioP2;P2;SDS_P1;SDS_P2;PMS_P1;PMS_P2;Temp;Humidity;BMP_temperature;BMP_pressure;BME280_temperature;BME280_humidity;BME280_pressure;Samples;Min_cycle;Max_cycle;Signal;HPM_P1;HPM_P2
2022/02/15 00:01:19;;;;;;;23.80;9.80;;;;;;;1.56;54.82;100492.20;25115;1312;3054196;-69
2022/02/15 00:03:48;;;;;;;28.10;9.60;;;;;;;1.55;55.01;100487.89;25155;1312;3026678;-71
2022/02/15 00:06:17;;;;;;;22.10;9.60;;;;;;;1.49;55.21;100486.55;25162;1312;3053937;-69
2022/02/15 00:08:46;;;;;;;22.30;8.70;;;;;;;1.48;54.99;100489.66;25151;1316;3029208;-71
2022/02/15 00:11:16;;;;;;;17.80;8.70;;;;;;;1.47;55.14;100482.58;25136;1312;3054739;-68
2022/02/15 00:13:45;;;;;;;23.50;10.40;;;;;;;1.46;55.10;100481.74;25067;1315;3028460;-71
2022/02/15 00:16:14;;;;;;;21.30;9.60;;;;;;;1.43;55.35;100484.86;25133;1312;3047993;-69
2022/02/15 00:18:43;;;;;;;18.30;8.40;;;;;;;1.36;55.25;100481.63;25131;1312;3026165;-71
2022/02/15 00:21:12;;;;;;;20.40;8.70;;;;;;;1.36;55.51;100479.73;25117;1315;3068062;-67
2022/02/15 00:23:41;;;;;;;18.80;8.20;;;;;;;1.31;55.50;100479.94;25152;1312;3026696;-69
2022/02/15 00:26:10;;;;;;;22.30;9.10;;;;;;;1.31;55.64;100476.65;25130;1312;3053814;-71
2022/02/15 00:28:39;;;;;;;22.00;8.60;;;;;;;1.30;55.54;100471.30;25131;1312;3027676;-70
2022/02/15 00:31:08;;;;;;;19.20;8.60;;;;;;;1.28;55.35;100470.98;25133;1312;3054615;-67
2022/02/15 00:33:37;;;;;;;21.00;9.30;;;;;;;1.29;55.26;100467.52;25185;1312;3026407;-68
2022/02/15 00:36:06;;;;;;;19.60;9.30;;;;;;;1.27;55.54;100465.65;25112;1312;3050625;-65
2022/02/15 00:38:35;;;;;;;21.40;9.40;;;;;;;1.24;55.41;100465.82;25159;1312;3026555;-69
2022/02/15 00:41:07;;;;;;;18.40;8.70;;;;;;;1.20;55.75;100466.02;25169;1312;3056181;-71
2022/02/15 00:43:36;;;;;;;23.50;9.70;;;;;;;1.19;55.86;100460.85;25156;1315;3027330;-67
2022/02/15 00:46:06;;;;;;;20.70;10.10;;;;;;;1.18;56.07;100461.20;25146;1312;3026883;-68
2022/02/15 00:48:35;;;;;;;21.50;8.80;;;;;;;1.19;55.81;100460.51;25199;1312;3027087;-68
2022/02/15 00:51:04;;;;;;;25.80;10.30;;;;;;;1.17;55.81;100455.86;25127;1312;3049695;-75
2022/02/15 00:53:34;;;;;;;22.40;10.00;;;;;;;1.19;56.07;100455.67;25101;1313;3026366;-71
2022/02/15 00:56:03;;;;;;;26.00;10.80;;;;;;;1.21;55.75;100453.42;25154;1312;3028877;-68
2022/02/15 00:58:33;;;;;;;25.60;9.60;;;;;;;1.17;55.77;100455.68;25136;1315;3049495;-68
2022/02/15 01:01:02;;;;;;;23.10;10.30;;;;;;;1.13;55.85;100451.23;25145;1312;3026598;-66
2022/02/15 01:03:31;;;;;;;24.10;10.40;;;;;;;1.16;55.78;100447.93;25125;1312;3056215;-71
2022/02/15 01:06:00;;;;;;;24.90;10.40;;;;;;;1.17;55.70;100442.40;25135;1312;3026395;-67
2022/02/15 01:08:48;;;;;;;23.10;10.40;;;;;;;1.16;55.95;100441.20;25130;1312;3054391;-71
2022/02/15 01:11:17;;;;;;;24.90;10.10;;;;;;;1.14;56.02;100447.26;25138;1313;3059640;-67
2022/02/15 01:13:47;;;;;;;26.90;11.00;;;;;;;1.13;56.26;100449.85;25109;1315;3026865;-69
2022/02/15 01:16:16;;;;;;;22.80;10.00;;;;;;;1.12;56.37;100444.85;25147;1312;3026211;-71
2022/02/15 01:18:45;;;;;;;26.00;11.10;;;;;;;1.12;56.06;100440.88;25190;1315;3055731;-65
2022/02/15 01:21:14;;;;;;;20.90;9.70;;;;;;;1.05;56.58;100437.47;25134;1312;3026637;-68
2022/02/15 01:23:44;;;;;;;23.80;10.10;;;;;;;1.06;56.13;100440.92;25134;1312;3026457;-68
2022/02/15 01:26:13;;;;;;;22.10;10.20;;;;;;;1.05;56.52;100441.61;25121;1315;3027035;-69
2022/02/15 01:28:43;;;;;;;21.50;10.10;;;;;;;1.04;56.55;100437.64;25151;1316;3027854;-65
2022/02/15 01:31:12;;;;;;;21.30;9.50;;;;;;;1.01;56.71;100438.18;25098;1315;3028871;-74
2022/02/15 01:33:41;;;;;;;19.70;9.10;;;;;;;1.03;56.42;100439.73;25278;1312;3053580;-70
2022/02/15 01:36:10;;;;;;;19.20;8.70;;;;;;;0.97;56.83;100443.03;25153;1312;3026740;-66
2022/02/15 01:38:39;;;;;;;21.10;8.70;;;;;;;0.93;57.01;100442.36;25103;1312;3052575;-70
2022/02/15 01:41:09;;;;;;;21.20;8.80;;;;;;;0.93;56.73;100444.60;25054;1315;3026724;-66
2022/02/15 01:43:39;;;;;;;19.40;9.10;;;;;;;0.94;56.87;100447.88;25191;1312;3049522;-70
2022/02/15 01:46:09;;;;;;;19.30;8.30;;;;;;;0.95;56.78;100446.85;25160;1313;3027155;-68
2022/02/15 01:48:47;;;;;;;20.60;8.70;;;;;;;0.92;56.97;100447.03;25117;1313;3027586;-68
2022/02/15 01:51:18;;;;;;;22.20;9.30;;;;;;;0.91;56.91;100449.45;25165;1311;3069004;-67
2022/02/15 01:53:47;;;;;;;22.40;9.90;;;;;;;0.87;57.29;100442.23;25168;1312;3026396;-74
2022/02/15 01:56:16;;;;;;;20.80;10.40;;;;;;;0.82;57.66;100446.23;25108;1316;3053378;-69
2022/02/15 01:58:45;;;;;;;22.80;9.60;;;;;;;0.79;57.61;100443.13;25122;1315;3026251;-67
2022/02/15 02:01:21;;;;;;;27.00;10.10;;;;;;;0.77;57.77;100444.52;25102;1312;3055628;-71
2022/02/15 02:04:01;;;;;;;21.70;9.10;;;;;;;0.75;57.68;100445.73;25180;1315;3054456;-69
2022/02/15 02:06:31;;;;;;;20.80;10.10;;;;;;;0.72;58.21;100439.03;25143;1312;3026643;-65
2022/02/15 02:09:03;;;;;;;26.30;9.90;;;;;;;0.70;58.02;100440.59;25166;1312;3029396;-70
2022/02/15 02:11:32;;;;;;;26.10;10.40;;;;;;;0.69;57.85;100439.04;25132;1315;3026537;-70
2022/02/15 02:14:11;;;;;;;23.40;10.80;;;;;;;0.63;58.49;100445.09;25141;1312;3051499;-65
2022/02/15 02:16:46;;;;;;;24.70;10.60;;;;;;;0.59;58.65;100447.01;25113;1312;3058957;-70
2022/02/15 02:19:21;;;;;;;25.80;10.30;;;;;;;0.56;58.68;100448.06;25141;1312;3050202;-70
2022/02/15 02:21:50;;;;;;;23.90;10.00;;;;;;;0.57;58.35;100445.12;25128;1312;3026659;-67
2022/02/15 02:24:20;;;;;;;23.30;10.10;;;;;;;0.52;58.72;100449.12;25143;1315;3055984;-69
2022/02/15 02:26:51;;;;;;;21.20;10.90;;;;;;;0.50;58.86;100446.36;25126;1315;3026676;-71
2022/02/15 02:29:21;;;;;;;24.00;11.90;;;;;;;0.50;58.85;100444.11;25194;1313;3028208;-70
2022/02/15 02:31:50;;;;;;;25.30;11.20;;;;;;;0.46;58.94;100442.92;25122;1316;3026475;-68
2022/02/15 02:34:22;;;;;;;37.10;12.40;;;;;;;0.44;59.33;100437.77;25117;1315;3049662;-72
2022/02/15 02:36:52;;;;;;;35.90;14.40;;;;;;;0.43;59.29;100440.52;25155;1315;3028532;-67
2022/02/15 02:39:24;;;;;;;33.70;16.40;;;;;;;0.46;59.41;100440.86;25126;1315;3026083;-67
2022/02/15 02:41:54;;;;;;;33.90;16.20;;;;;;;0.45;59.28;100434.14;25113;1315;3026876;-70
2022/02/15 02:44:24;;;;;;;31.60;14.80;;;;;;;0.46;59.36;100435.02;25152;1315;3027331;-67
2022/02/15 02:46:53;;;;;;;29.30;13.80;;;;;;;0.43;59.74;100428.81;25141;1315;3026974;-67
2022/02/15 02:49:24;;;;;;;29.00;12.30;;;;;;;0.44;59.33;100431.55;25136;1315;3069622;-75
2022/02/15 02:51:53;;;;;;;22.10;10.80;;;;;;;0.42;59.21;100435.35;25146;1316;3028437;-69
2022/02/15 02:54:24;;;;;;;22.60;11.00;;;;;;;0.45;59.01;100432.77;25093;1316;3054300;-71
2022/02/15 02:57:01;;;;;;;29.70;12.00;;;;;;;0.44;59.21;100434.30;25130;1315;3068117;-70
2022/02/15 02:59:30;;;;;;;26.80;11.60;;;;;;;0.41;59.49;100436.39;25159;1315;3026361;-72
2022/02/15 03:02:03;;;;;;;26.40;12.10;;;;;;;0.38;59.76;100432.45;25106;1315;3026854;-69
2022/02/15 03:04:34;;;;;;;23.60;10.60;;;;;;;0.35;59.90;100434.35;25101;1315;3026816;-72
2022/02/15 03:07:03;;;;;;;27.90;12.90;;;;;;;0.29;60.15;100430.39;25080;1315;3026378;-71
2022/02/15 03:09:33;;;;;;;33.50;14.10;;;;;;;0.27;60.42;100428.33;25075;1314;3028093;-73
2022/02/15 03:12:03;;;;;;;31.70;14.60;;;;;;;0.24;60.31;100428.68;25103;1315;3026649;-65
2022/02/15 03:14:34;;;;;;;30.10;16.60;;;;;;;0.19;60.49;100426.63;25115;1315;3058398;-72
2022/02/15 03:17:03;;;;;;;33.70;16.30;;;;;;;0.19;60.70;100430.77;25164;1315;3026494;-71
2022/02/15 03:19:33;;;;;;;34.40;16.70;;;;;;;0.16;60.71;100431.46;25122;1316;3051352;-69
2022/02/15 03:22:03;;;;;;;48.30;28.70;;;;;;;0.17;61.19;100427.85;25137;1315;3027453;-65
2022/02/15 03:24:33;;;;;;;53.30;33.30;;;;;;;0.16;61.42;100426.98;25089;1313;3026824;-66
2022/02/15 03:27:02;;;;;;;54.30;31.30;;;;;;;0.12;61.50;100427.00;25056;1313;3052217;-73
2022/02/15 03:29:32;;;;;;;41.90;25.10;;;;;;;0.09;61.50;100425.27;25106;1313;3026618;-64
2022/02/15 03:32:01;;;;;;;42.60;22.80;;;;;;;0.09;61.60;100425.45;25141;1315;3027230;-72
2022/02/15 03:34:31;;;;;;;40.30;20.90;;;;;;;0.06;61.72;100425.29;25146;1313;3053749;-69
2022/02/15 03:37:01;;;;;;;45.40;26.40;;;;;;;0.07;61.52;100423.74;25149;1315;3026970;-70
2022/02/15 03:39:36;;;;;;;49.40;26.80;;;;;;;0.02;62.05;100424.78;25073;1313;3050433;-70
2022/02/15 03:44:56;;;;;;;52.60;29.90;;;;;;;-0.04;62.39;100423.59;25148;1315;3051504;-71
2022/02/15 03:47:38;;;;;;;52.00;31.80;;;;;;;-0.09;62.74;100425.15;25098;1315;3072154;-69
2022/02/15 03:50:09;;;;;;;53.80;31.50;;;;;;;-0.05;62.24;100423.08;25120;1315;3026598;-69
2022/02/15 03:52:39;;;;;;;45.40;24.40;;;;;;;0.03;61.56;100425.98;25101;1314;3026563;-68
2022/02/15 03:55:08;;;;;;;34.30;18.90;;;;;;;0.02;61.43;100427.02;25143;1315;3026881;-70
2022/02/15 03:57:38;;;;;;;29.90;14.40;;;;;;;0.04;61.52;100429.60;25080;1314;3051160;-72
2022/02/15 04:00:08;;;;;;;27.40;13.70;;;;;;;0.03;61.49;100430.48;25108;1315;3026417;-70
2022/02/15 04:02:48;;;;;;;27.20;11.00;;;;;;;-0.02;61.71;100430.31;25095;1315;3053245;-72
2022/02/15 04:05:17;;;;;;;32.00;11.00;;;;;;;-0.00;61.59;100430.98;25129;1313;3028106;-69
2022/02/15 04:07:46;;;;;;;26.70;11.20;;;;;;;0.01;61.18;100429.43;25081;1315;3055625;-68
2022/02/15 04:10:19;;;;;;;22.60;11.00;;;;;;;-0.03;61.31;100427.73;25087;1313;3027019;-70
2022/02/15 04:12:50;;;;;;;22.90;9.70;;;;;;;-0.05;61.23;100431.86;25113;1313;3057254;-72
2022/02/15 04:15:19;;;;;;;28.40;10.20;;;;;;;-0.06;61.46;100430.14;25147;1313;3026711;-69
2022/02/15 04:17:53;;;;;;;18.70;8.80;;;;;;;-0.07;61.09;100425.66;25082;1315;3053453;-71
2022/02/15 04:20:22;;;;;;;25.40;9.90;;;;;;;-0.07;61.07;100424.80;25130;1313;3026981;-69
2022/02/15 04:22:51;;;;;;;24.30;10.00;;;;;;;-0.04;61.12;100428.23;25126;1315;3048923;-75
2022/02/15 04:25:20;;;;;;;21.80;8.70;;;;;;;-0.10;61.45;100433.92;25105;1313;3026340;-74
2022/02/15 04:27:49;;;;;;;21.70;8.50;;;;;;;-0.10;61.21;100433.08;25159;1312;3058504;-72
2022/02/15 04:30:18;;;;;;;21.10;9.40;;;;;;;-0.14;61.39;100433.08;25166;1312;3026753;-66
2022/02/15 04:32:50;;;;;;;21.30;9.30;;;;;;;-0.14;61.33;100434.11;25168;1312;3028896;-70
2022/02/15 04:35:19;;;;;;;23.10;9.70;;;;;;;-0.11;61.37;100435.48;25156;1312;3029039;-71
2022/02/15 04:37:51;;;;;;;24.00;9.80;;;;;;;-0.18;61.38;100436.88;25200;1312;3051908;-69
2022/02/15 04:40:20;;;;;;;22.30;9.30;;;;;;;-0.23;61.36;100433.25;25231;1312;3027094;-71
2022/02/15 04:42:49;;;;;;;22.20;10.60;;;;;;;-0.17;61.01;100440.48;25133;1312;3026596;-69
2022/02/15 04:45:18;;;;;;;23.00;10.80;;;;;;;-0.19;60.98;100442.90;25135;1312;3049234;-71
2022/02/15 04:47:50;;;;;;;22.00;10.50;;;;;;;-0.24;61.03;100440.34;25164;1312;3026852;-74
2022/02/15 04:50:20;;;;;;;29.40;11.30;;;;;;;-0.19;60.82;100441.02;25109;1312;3026124;-68
2022/02/15 04:52:49;;;;;;;26.40;10.80;;;;;;;-0.16;60.92;100440.48;25137;1313;3026818;-69
2022/02/15 04:55:21;;;;;;;26.10;9.90;;;;;;;-0.14;60.63;100448.92;25127;1312;3052610;-66
2022/02/15 04:57:56;;;;;;;22.30;10.10;;;;;;;-0.12;60.38;100451.51;25209;1312;3051261;-69
2022/02/15 05:00:26;;;;;;;20.80;9.60;;;;;;;-0.14;60.08;100452.88;25076;1315;3026587;-66
2022/02/15 05:03:15;;;;;;;21.10;9.60;;;;;;;-0.08;60.16;100458.91;25135;1312;3052560;-72
2022/02/15 05:05:45;;;;;;;24.10;10.50;;;;;;;-0.05;59.94;100460.11;25150;1312;3026734;-65
2022/02/15 05:08:16;;;;;;;20.20;9.30;;;;;;;-0.03;60.03;100461.83;25133;1312;3026305;-71
2022/02/15 05:10:45;;;;;;;34.50;10.90;;;;;;;-0.07;60.01;100461.14;25136;1312;3026419;-70
2022/02/15 05:13:15;;;;;;;32.30;12.20;;;;;;;-0.04;59.93;100462.34;25165;1312;3055353;-70
2022/02/15 05:15:52;;;;;;;34.20;13.10;;;;;;;-0.03;59.88;100462.86;25149;1312;3054717;-69
2022/02/15 05:18:27;;;;;;;37.30;11.80;;;;;;;0.00;59.98;100463.89;25098;1312;3055803;-72
2022/02/15 05:21:02;;;;;;;31.40;11.30;;;;;;;0.06;59.92;100469.73;25129;1312;3049877;-71
2022/02/15 05:23:32;;;;;;;31.00;12.30;;;;;;;-0.01;60.07;100477.86;25176;1312;3026656;-66
2022/02/15 05:26:01;;;;;;;28.80;12.50;;;;;;;0.03;59.83;100479.91;25088;1313;3026461;-72
2022/02/15 05:28:57;;;;;;;28.70;13.80;;;;;;;-0.05;60.22;100481.48;25189;1312;3049559;-65
2022/02/15 05:31:27;;;;;;;27.00;13.70;;;;;;;-0.04;60.40;100484.05;25186;1313;3031291;-69
2022/02/15 05:33:56;;;;;;;32.40;13.30;;;;;;;-0.03;60.21;100485.94;25105;1313;3026443;-74
2022/02/15 05:36:25;;;;;;;32.80;14.90;;;;;;;-0.05;60.54;100486.11;25098;1313;3052158;-71
2022/02/15 05:38:55;;;;;;;39.70;16.00;;;;;;;-0.05;60.37;100495.41;25177;1312;3026971;-68
2022/02/15 05:41:24;;;;;;;33.90;16.30;;;;;;;-0.01;60.40;100492.84;25190;1312;3026460;-73
2022/02/15 05:43:53;;;;;;;40.80;17.90;;;;;;;-0.01;60.39;100495.95;25142;1312;3030468;-74
2022/02/15 05:46:23;;;;;;;34.80;15.20;;;;;;;0.04;60.49;100492.64;25182;1313;3052892;-71
2022/02/15 05:48:56;;;;;;;36.20;14.90;;;;;;;0.08;60.47;100495.58;25125;1313;3026579;-69
2022/02/15 05:51:45;;;;;;;33.80;16.50;;;;;;;0.14;59.97;100493.16;25101;1312;3071760;-70
2022/02/15 05:54:18;;;;;;;;;;;;;;;0.14;60.42;100498.84;25138;1313;3049589;-70
2022/02/15 05:56:48;;;;;;;37.80;17.50;;;;;;;0.10;60.38;100499.71;25146;1312;3027662;-74
2022/02/15 05:59:39;;;;;;;41.10;17.60;;;;;;;0.10;60.33;100500.39;25135;1312;3052122;-72
2022/02/15 06:02:11;;;;;;;43.20;18.20;;;;;;;0.16;60.40;100504.70;25168;1313;3026977;-74
2022/02/15 06:04:56;;;;;;;40.30;17.60;;;;;;;0.21;60.15;100504.69;25166;1312;3049818;-69
2022/02/15 06:07:33;;;;;;;33.80;16.30;;;;;;;0.19;60.31;100507.45;25130;1312;3051203;-70
2022/02/15 06:10:12;;;;;;;32.40;15.80;;;;;;;0.26;60.24;100508.13;25180;1313;3051907;-77
2022/02/15 06:12:43;;;;;;;39.10;16.70;;;;;;;0.36;59.90;100507.25;25175;1313;3029799;-75
2022/02/15 06:15:13;;;;;;;34.90;15.20;;;;;;;0.49;59.53;100509.96;25166;1313;3029359;-67
2022/02/15 06:18:02;;;;;;;45.10;16.00;;;;;;;0.53;59.36;100509.79;25156;1312;3052806;-69
2022/02/15 06:20:32;;;;;;;36.60;14.20;;;;;;;0.59;59.12;100507.88;25173;1312;3027762;-66
2022/02/15 06:23:03;;;;;;;33.20;14.20;;;;;;;0.58;58.93;100511.33;25178;1313;3026325;-68
2022/02/15 06:25:32;;;;;;;27.90;12.60;;;;;;;0.66;58.69;100511.14;25136;1313;3026539;-69
2022/02/15 06:28:02;;;;;;;27.10;11.50;;;;;;;0.71;58.57;100507.50;25156;1313;3027045;-74
2022/02/15 06:30:36;;;;;;;33.90;12.60;;;;;;;0.80;58.30;100510.40;25170;1313;3055543;-73
2022/02/15 06:33:09;;;;;;;29.10;11.70;;;;;;;0.91;57.69;100508.11;25135;1315;3028664;-73
2022/02/15 06:35:38;;;;;;;29.00;11.30;;;;;;;0.93;57.41;100508.44;25113;1313;3026904;-69
2022/02/15 06:38:12;;;;;;;27.20;10.90;;;;;;;1.02;56.92;100508.56;24940;1313;3325577;-72
2022/02/15 06:40:41;;;;;;;27.30;11.40;;;;;;;1.10;56.64;100506.80;25144;1313;3026924;-69
2022/02/15 06:43:15;;;;;;;28.70;10.40;;;;;;;1.12;56.78;100505.41;25154;1315;3055818;-69
2022/02/15 06:45:45;;;;;;;28.90;11.50;;;;;;;1.27;56.61;100505.51;25165;1315;3027310;-73
2022/02/15 06:48:17;;;;;;;29.10;11.50;;;;;;;1.34;56.30;100504.25;25202;1311;3028736;-73
2022/02/15 06:50:46;;;;;;;27.40;11.60;;;;;;;1.36;56.36;100507.70;25149;1313;3026611;-70
2022/02/15 06:53:33;;;;;;;23.50;10.10;;;;;;;1.38;55.74;100502.15;25220;1313;3054387;-74
2022/02/15 06:56:20;;;;;;;25.20;10.30;;;;;;;1.49;55.96;100508.48;25152;1313;3068545;-67
2022/02/15 06:58:51;;;;;;;30.20;10.90;;;;;;;1.56;55.62;100502.39;25157;1313;3026394;-68
2022/02/15 07:01:24;;;;;;;16.70;7.10;;;;;;;1.55;54.82;100504.81;25165;1313;3054389;-69
2022/02/15 07:03:54;;;;;;;17.70;7.00;;;;;;;1.69;54.58;100505.23;25117;1313;3028005;-67
2022/02/15 07:06:26;;;;;;;18.80;6.90;;;;;;;1.70;54.14;100511.11;25141;1313;3026746;-66
2022/02/15 07:08:56;;;;;;;18.30;5.40;;;;;;;1.65;53.64;100509.40;25174;1313;3026393;-75
2022/02/15 07:11:26;;;;;;;12.00;4.40;;;;;;;1.64;52.36;100503.20;25142;1313;3026842;-69
2022/02/15 07:13:55;;;;;;;12.70;5.60;;;;;;;1.83;52.72;100507.20;25192;1313;3026490;-71
2022/02/15 07:16:24;;;;;;;17.30;7.30;;;;;;;1.92;52.84;100501.27;25131;1313;3051771;-74
2022/02/15 07:18:54;;;;;;;23.90;9.20;;;;;;;2.01;53.12;100496.67;25159;1311;3030200;-74
2022/02/15 07:21:43;;;;;;;18.80;7.80;;;;;;;2.02;52.18;100497.19;25150;1313;3049982;-69
2022/02/15 07:24:44;;;;;;;22.00;8.10;;;;;;;2.09;52.21;100492.11;25170;1313;3071177;-73
2022/02/15 07:27:44;;;;;;;19.70;7.90;;;;;;;2.16;51.32;100493.59;25088;1313;3049038;-68
2022/02/15 07:30:15;;;;;;;21.30;8.00;;;;;;;2.29;51.05;100491.40;25193;1312;3026920;-72
2022/02/15 07:33:00;;;;;;;24.50;7.70;;;;;;;2.41;50.91;100489.02;25160;1312;3051860;-72
2022/02/15 07:35:30;;;;;;;16.30;7.30;;;;;;;2.50;50.52;100485.64;25169;1313;3026723;-71
2022/02/15 07:37:58;;;;;;;20.40;8.50;;;;;;;2.57;50.39;100489.88;25209;1312;3026924;-74
2022/02/15 07:40:27;;;;;;;22.40;9.10;;;;;;;2.66;50.28;100488.73;25202;1313;3026823;-71
2022/02/15 07:42:56;;;;;;;23.20;9.20;;;;;;;2.70;50.22;100489.55;25187;1312;3055710;-69
2022/02/15 07:45:42;;;;;;;24.20;8.00;;;;;;;2.75;50.15;100487.41;25171;1313;3051961;-72
2022/02/15 07:48:11;;;;;;;23.00;9.00;;;;;;;2.84;50.33;100482.48;25313;1313;3028829;-73
2022/02/15 07:50:40;;;;;;;18.20;6.30;;;;;;;2.88;49.93;100485.19;25307;1313;3056033;-69
2022/02/15 07:53:09;;;;;;;19.20;6.90;;;;;;;2.91;48.95;100484.29;25157;1313;3026554;-73
2022/02/15 07:55:38;;;;;;;13.90;5.40;;;;;;;2.98;49.03;100480.38;25214;1313;3054991;-77
2022/02/15 07:58:10;;;;;;;14.40;6.80;;;;;;;3.13;49.04;100487.27;25321;1312;3027551;-70
2022/02/15 08:00:41;;;;;;;13.20;5.40;;;;;;;3.17;49.38;100484.11;25200;1313;3026478;-72
2022/02/15 08:03:10;;;;;;;14.10;3.90;;;;;;;3.22;48.11;100482.31;25229;1313;3026006;-71
2022/02/15 08:05:41;;;;;;;12.60;3.80;;;;;;;3.26;47.95;100481.05;25213;1313;3056206;-71
2022/02/15 08:08:16;;;;;;;11.70;5.20;;;;;;;3.33;48.20;100480.95;25171;1313;3049690;-73
2022/02/15 08:10:47;;;;;;;9.40;3.90;;;;;;;3.30;48.17;100476.50;25181;1313;3026393;-73
2022/02/15 08:13:18;;;;;;;8.20;3.80;;;;;;;3.30;48.01;100475.45;25122;1313;3027685;-69
2022/02/15 08:15:50;;;;;;;11.80;4.60;;;;;;;3.44;48.20;100479.73;25193;1313;3028680;-73
2022/02/15 08:18:20;;;;;;;14.60;4.80;;;;;;;3.55;47.87;100484.95;25204;1313;3027004;-68
2022/02/15 08:20:49;;;;;;;9.90;4.40;;;;;;;3.61;47.77;100484.68;25164;1312;3030650;-65
2022/02/15 08:23:19;;;;;;;13.90;4.40;;;;;;;3.65;47.32;100484.98;25094;1313;3070896;-72
2022/02/15 08:25:50;;;;;;;9.20;3.40;;;;;;;3.66;47.52;100485.82;25136;1313;3026546;-66
2022/02/15 08:28:21;;;;;;;10.20;3.50;;;;;;;3.78;47.68;100489.45;25140;1313;3026563;-70
2022/02/15 08:30:50;;;;;;;14.40;3.60;;;;;;;3.83;47.95;100486.75;25125;1313;3027353;-73
2022/02/15 08:33:19;;;;;;;14.70;3.30;;;;;;;3.88;47.19;100484.08;25167;1313;3026686;-72
2022/02/15 08:35:48;;;;;;;10.70;3.70;;;;;;;3.96;47.12;100481.50;25163;1311;3026707;-73
2022/02/15 08:38:17;;;;;;;23.70;4.30;;;;;;;4.14;46.99;100479.27;25159;1313;3049780;-67
2022/02/15 08:40:46;;;;;;;8.80;3.60;;;;;;;4.15;46.74;100483.77;25136;1313;3026490;-70
2022/02/15 08:43:16;;;;;;;12.30;3.20;;;;;;;4.12;46.67;100483.83;25184;1313;3055983;-69
2022/02/15 08:45:47;;;;;;;12.50;3.20;;;;;;;4.03;46.58;100478.45;25144;1312;3026360;-68
2022/02/15 08:48:16;;;;;;;18.30;3.70;;;;;;;4.17;47.08;100483.40;25140;1313;3026059;-69
2022/02/15 08:50:45;;;;;;;9.40;3.70;;;;;;;4.25;47.07;100480.13;25049;1313;3026851;-66
2022/02/15 08:53:16;;;;;;;6.60;3.10;;;;;;;4.44;47.02;100470.75;25160;1311;3051451;-69
2022/02/15 08:55:45;;;;;;;5.20;2.60;;;;;;;4.49;46.82;100466.85;25189;1312;3027227;-66
2022/02/15 08:58:14;;;;;;;10.10;2.60;;;;;;;4.58;45.94;100465.96;25150;1313;3025965;-65
2022/02/15 09:00:43;;;;;;;7.20;2.90;;;;;;;4.56;45.78;100467.91;25199;1313;3053483;-71
2022/02/15 09:03:14;;;;;;;5.00;2.20;;;;;;;4.62;45.83;100463.63;25158;1313;3027009;-67
2022/02/15 09:05:43;;;;;;;10.00;2.50;;;;;;;4.68;44.96;100458.48;25218;1313;3026412;-67
2022/02/15 09:08:13;;;;;;;6.70;2.80;;;;;;;4.75;44.59;100455.05;25218;1312;3026263;-70
2022/02/15 09:10:42;;;;;;;3.90;1.80;;;;;;;4.83;43.88;100452.09;25172;1313;3026524;-66
2022/02/15 09:13:11;;;;;;;7.60;2.10;;;;;;;4.83;43.09;100450.02;25215;1312;3048503;-70
2022/02/15 09:15:40;;;;;;;6.70;2.30;;;;;;;4.82;42.82;100443.95;25157;1313;3026557;-67
2022/02/15 09:18:09;;;;;;;5.10;2.10;;;;;;;4.98;42.83;100441.00;25183;1313;3058055;-67
2022/02/15 09:20:38;;;;;;;11.80;2.10;;;;;;;4.98;42.87;100442.72;25175;1313;3026850;-69
2022/02/15 09:23:07;;;;;;;6.60;2.40;;;;;;;5.17;43.26;100440.95;25165;1312;3053612;-68
2022/02/15 09:25:36;;;;;;;6.60;2.10;;;;;;;5.28;42.97;100440.52;25130;1315;3030220;-66
2022/02/15 09:28:05;;;;;;;6.80;2.00;;;;;;;5.33;42.37;100437.61;25149;1316;3054599;-68
2022/02/15 09:30:35;;;;;;;5.50;2.10;;;;;;;5.29;40.49;100430.23;25122;1312;3026697;-65
2022/02/15 09:33:13;;;;;;;4.10;1.80;;;;;;;5.28;40.10;100426.08;25137;1312;3026921;-70
2022/02/15 09:35:43;;;;;;;6.70;2.30;;;;;;;5.31;39.71;100428.97;25185;1313;3054772;-64
2022/02/15 09:38:12;;;;;;;5.00;1.90;;;;;;;5.27;39.21;100421.94;25138;1312;3026978;-70
2022/02/15 09:40:42;;;;;;;9.20;1.90;;;;;;;5.36;39.44;100413.56;25231;1315;3051242;-68
2022/02/15 09:43:11;;;;;;;4.70;1.80;;;;;;;5.42;39.10;100409.27;25161;1312;3026628;-65
2022/02/15 09:48:24;;;;;;;8.20;1.90;;;;;;;5.62;39.35;100400.59;31598;1319;3026395;-71
2022/02/15 09:50:54;;;;;;;7.90;2.80;;;;;;;6.01;39.10;100397.15;25064;1316;3026796;-68
2022/02/15 09:53:23;;;;;;;4.90;2.10;;;;;;;6.29;37.76;100394.67;25116;1316;3026822;-68
2022/02/15 09:55:52;;;;;;;4.40;1.90;;;;;;;6.20;36.96;100391.27;25036;1316;3030043;-65
2022/02/15 09:58:21;;;;;;;8.20;2.20;;;;;;;6.18;36.93;100389.92;25068;1316;3051232;-68
2022/02/15 10:00:50;;;;;;;7.70;3.10;;;;;;;6.25;36.49;100389.39;24986;1316;3170731;-69
2022/02/15 10:03:19;;;;;;;11.60;1.70;;;;;;;6.25;35.95;100390.96;25151;1316;3048585;-66
2022/02/15 10:05:49;;;;;;;6.30;2.20;;;;;;;6.26;35.95;100380.32;25179;1316;3026773;-71
2022/02/15 10:08:28;;;;;;;13.40;2.50;;;;;;;6.42;36.42;100378.83;25121;1314;3069102;-67
2022/02/15 10:11:09;;;;;;;5.70;2.30;;;;;;;6.63;36.30;100370.90;25228;1316;3048944;-63
2022/02/15 10:13:46;;;;;;;10.60;1.80;;;;;;;6.62;35.28;100366.59;25117;1316;3052843;-65
2022/02/15 10:16:15;;;;;;;6.00;2.10;;;;;;;6.68;34.78;100367.10;25112;1316;3051541;-68
2022/02/15 10:18:44;;;;;;;8.00;1.60;;;;;;;6.78;34.91;100367.48;25120;1316;3026839;-68
2022/02/15 10:21:16;;;;;;;8.70;2.40;;;;;;;6.79;34.00;100367.64;25155;1313;3052616;-68
2022/02/15 10:23:51;;;;;;;3.20;1.70;;;;;;;6.96;34.63;100364.67;25197;1312;3053266;-68
2022/02/15 10:26:20;;;;;;;9.30;3.20;;;;;;;7.14;35.94;100363.77;25135;1313;3058671;-71
2022/02/15 10:28:49;;;;;;;12.20;2.70;;;;;;;7.18;36.55;100357.16;25155;1312;3026352;-68
2022/02/15 10:31:18;;;;;;;7.30;2.10;;;;;;;7.08;34.84;100356.64;25110;1313;3053851;-68
2022/02/15 10:33:50;;;;;;;8.30;2.20;;;;;;;7.09;34.54;100356.77;25090;1313;3027483;-66
2022/02/15 10:36:19;;;;;;;5.50;2.40;;;;;;;7.07;33.80;100359.12;25135;1313;3051911;-65
2022/02/15 10:38:53;;;;;;;5.40;1.70;;;;;;;7.01;33.52;100351.29;25100;1312;3026900;-75
2022/02/15 10:41:22;;;;;;;6.60;2.40;;;;;;;7.03;34.00;100350.50;25147;1313;3056092;-70
2022/02/15 10:43:55;;;;;;;5.60;1.70;;;;;;;7.10;34.43;100346.29;25154;1313;3028850;-72
2022/02/15 10:46:26;;;;;;;6.00;1.90;;;;;;;7.14;34.55;100343.53;25136;1313;3052162;-69
2022/02/15 10:48:55;;;;;;;7.40;2.60;;;;;;;7.18;35.08;100340.79;25135;1313;3026677;-76
2022/02/15 10:51:25;;;;;;;9.30;2.30;;;;;;;7.40;35.64;100341.98;25145;1313;3026963;-72
2022/02/15 10:53:55;;;;;;;9.30;3.00;;;;;;;7.50;35.97;100336.96;25129;1313;3026828;-72
2022/02/15 10:56:32;;;;;;;6.70;2.70;;;;;;;7.53;35.82;100336.35;25156;1316;3026511;-70
2022/02/15 10:59:03;;;;;;;11.30;2.60;;;;;;;7.61;35.71;100333.46;25138;1313;3069337;-74
2022/02/15 11:01:33;;;;;;;6.90;2.50;;;;;;;7.64;35.82;100331.77;25115;1316;3025983;-74
2022/02/15 11:04:03;;;;;;;5.40;2.30;;;;;;;7.58;35.89;100324.31;25143;1313;3026997;-75
2022/02/15 11:06:34;;;;;;;4.40;2.20;;;;;;;7.54;36.02;100327.23;25107;1313;3069225;-72
2022/02/15 11:09:05;;;;;;;3.80;2.00;;;;;;;7.60;36.18;100317.45;25103;1313;3026268;-70
2022/02/15 11:11:55;;;;;;;15.80;2.40;;;;;;;7.68;36.03;100318.20;25649;1313;3026192;-73
2022/02/15 11:14:24;;;;;;;11.70;2.00;;;;;;;7.71;36.21;100314.26;25378;1313;3052647;-70
2022/02/15 11:16:53;;;;;;;6.70;2.20;;;;;;;7.75;36.11;100312.91;25182;1315;3026773;-72
2022/02/15 11:19:33;;;;;;;5.80;2.10;;;;;;;7.78;36.52;100315.25;25130;1316;3050619;-73
2022/02/15 11:22:04;;;;;;;7.50;3.20;;;;;;;7.88;36.62;100316.29;25158;1315;3055701;-68
2022/02/15 11:24:40;;;;;;;6.70;2.40;;;;;;;7.89;36.63;100309.80;25128;1313;3026434;-72
2022/02/15 11:27:16;;;;;;;6.80;2.70;;;;;;;7.82;36.76;100304.30;25146;1313;3049390;-72
2022/02/15 11:29:50;;;;;;;4.00;2.10;;;;;;;7.78;36.80;100308.61;25187;1313;3052475;-72
2022/02/15 11:32:26;;;;;;;6.30;2.40;;;;;;;7.69;36.96;100300.04;25165;1313;3049332;-72